sensor_id;sensor_type;location;lat;lon;timestamp;temperature;humidity
56076;DHT22;41951;49.022;12.066;2022-09-25T00:00:49;12.60;99.90
56076;DHT22;41951;49.022;12.066;2022-09-25T00:03:16;12.60;99.90
56076;DHT22;41951;49.022;12.066;2022-09-25T00:05:43;12.50;99.90
56076;DHT22;41951;49.022;12.066;2022-09-25T00:08:11;12.50;99.90
56076;DHT22;41951;49.022;12.066;2022-09-25T00:10:45;12.50;99.90
56076;DHT22;41951;49.022;12.066;2022-09-25T00:13:11;12.50;99.90
56076;DHT22;41951;49.022;12.066;2022-09-25T00:15:37;12.50;99.90
56076;DHT22;41951;49.022;12.066;2022-09-25T00:18:11;12.50;99.90
56076;DHT22;41951;49.022;12.066;2022-09-25T00:20:37;12.50;99.90
56076;DHT22;41951;49.022;12.066;2022-09-25T00:23:02;12.50;99.90
56076;DHT22;41951;49.022;12.066;2022-09-25T00:25:28;12.50;99.90
56076;DHT22;41951;49.022;12.066;2022-09-25T00:27:54;12.50;99.90
56076;DHT22;41951;49.022;12.066;2022-09-25T00:30:20;12.50;99.90
56076;DHT22;41951;49.022;12.066;2022-09-25T00:32:46;12.50;99.90
56076;DHT22;41951;49.022;12.066;2022-09-25T00:35:11;12.50;99.90
56076;DHT22;41951;49.022;12.066;2022-09-25T00:37:37;12.50;99.90
56076;DHT22;41951;49.022;12.066;2022-09-25T00:40:04;12.60;99.90
56076;DHT22;41951;49.022;12.066;2022-09-25T00:42:30;12.60;99.90
56076;DHT22;41951;49.022;12.066;2022-09-25T00:45:04;12.60;99.90
56076;DHT22;41951;49.022;12.066;2022-09-25T00:50:37;12.60;99.90
56076;DHT22;41951;49.022;12.066;2022-09-25T00:53:12;12.60;99.90
56076;DHT22;41951;49.022;12.066;2022-09-25T00:55:42;12.60;99.90
56076;DHT22;41951;49.022;12.066;2022-09-25T00:58:09;12.60;99.90
56076;DHT22;41951;49.022;12.066;2022-09-25T01:00:36;12.50;99.90
56076;DHT22;41951;49.022;12.066;2022-09-25T01:03:03;12.60;99.90
56076;DHT22;41951;49.022;12.066;2022-09-25T01:05:35;12.60;99.90
56076;DHT22;41951;49.022;12.066;2022-09-25T01:08:03;12.60;99.90
56076;DHT22;41951;49.022;12.066;2022-09-25T01:10:30;12.60;99.90
56076;DHT22;41951;49.022;12.066;2022-09-25T01:12:57;12.50;99.90
56076;DHT22;41951;49.022;12.066;2022-09-25T01:18:12;12.60;99.90
56076;DHT22;41951;49.022;12.066;2022-09-25T01:23:26;12.50;99.90
56076;DHT22;41951;49.022;12.066;2022-09-25T01:32:25;12.50;99.90
56076;DHT22;41951;49.022;12.066;2022-09-25T01:35:03;12.50;99.90
56076;DHT22;41951;49.022;12.066;2022-09-25T01:37:52;12.40;99.90
56076;DHT22;41951;49.022;12.066;2022-09-25T01:40:29;12.40;99.90
56076;DHT22;41951;49.022;12.066;2022-09-25T01:45:34;12.40;99.90
56076;DHT22;41951;49.022;12.066;2022-09-25T01:48:01;12.40;99.90
56076;DHT22;41951;49.022;12.066;2022-09-25T01:50:38;12.40;99.90
56076;DHT22;41951;49.022;12.066;2022-09-25T01:53:08;12.40;99.90
56076;DHT22;41951;49.022;12.066;2022-09-25T01:55:40;12.40;99.90
56076;DHT22;41951;49.022;12.066;2022-09-25T01:58:34;12.30;99.90
56076;DHT22;41951;49.022;12.066;2022-09-25T02:01:06;12.30;99.90
56076;DHT22;41951;49.022;12.066;2022-09-25T02:03:41;12.20;99.90
56076;DHT22;41951;49.022;12.066;2022-09-25T02:06:14;12.20;99.90
56076;DHT22;41951;49.022;12.066;2022-09-25T02:08:54;12.20;99.90
56076;DHT22;41951;49.022;12.066;2022-09-25T02:11:26;12.10;99.90
56076;DHT22;41951;49.022;12.066;2022-09-25T02:14:06;12.10;99.90
56076;DHT22;41951;49.022;12.066;2022-09-25T02:16:37;12.10;99.90
56076;DHT22;41951;49.022;12.066;2022-09-25T02:19:03;12.10;99.90
56076;DHT22;41951;49.022;12.066;2022-09-25T02:24:25;12.20;99.90
56076;DHT22;41951;49.022;12.066;2022-09-25T02:26:51;12.20;99.90
56076;DHT22;41951;49.022;12.066;2022-09-25T02:29:17;12.20;99.90
56076;DHT22;41951;49.022;12.066;2022-09-25T02:31:50;12.20;99.90
56076;DHT22;41951;49.022;12.066;2022-09-25T02:34:20;12.20;99.90
56076;DHT22;41951;49.022;12.066;2022-09-25T02:36:45;12.20;99.90
56076;DHT22;41951;49.022;12.066;2022-09-25T02:39:14;12.30;99.90
56076;DHT22;41951;49.022;12.066;2022-09-25T02:52:52;12.20;99.90
56076;DHT22;41951;49.022;12.066;2022-09-25T02:55:42;12.10;99.90
56076;DHT22;41951;49.022;12.066;2022-09-25T03:00:43;12.10;99.90
56076;DHT22;41951;49.022;12.066;2022-09-25T03:03:13;12.10;99.90
56076;DHT22;41951;49.022;12.066;2022-09-25T03:05:40;12.10;99.90
56076;DHT22;41951;49.022;12.066;2022-09-25T03:08:06;12.10;99.90
56076;DHT22;41951;49.022;12.066;2022-09-25T03:10:50;12.00;99.90
56076;DHT22;41951;49.022;12.066;2022-09-25T03:13:18;12.00;99.90
56076;DHT22;41951;49.022;12.066;2022-09-25T03:15:52;12.00;99.90
56076;DHT22;41951;49.022;12.066;2022-09-25T03:18:19;12.10;99.90
56076;DHT22;41951;49.022;12.066;2022-09-25T03:20:45;12.00;99.90
56076;DHT22;41951;49.022;12.066;2022-09-25T03:23:11;12.00;99.90
56076;DHT22;41951;49.022;12.066;2022-09-25T03:25:37;12.00;99.90
56076;DHT22;41951;49.022;12.066;2022-09-25T03:28:07;12.00;99.90
56076;DHT22;41951;49.022;12.066;2022-09-25T03:30:34;12.00;99.90
56076;DHT22;41951;49.022;12.066;2022-09-25T03:33:03;12.00;99.90
56076;DHT22;41951;49.022;12.066;2022-09-25T03:35:28;12.00;99.90
56076;DHT22;41951;49.022;12.066;2022-09-25T03:37:54;12.00;99.90
56076;DHT22;41951;49.022;12.066;2022-09-25T03:40:19;12.00;99.90
56076;DHT22;41951;49.022;12.066;2022-09-25T03:42:45;12.00;99.90
56076;DHT22;41951;49.022;12.066;2022-09-25T03:45:11;11.90;99.90
56076;DHT22;41951;49.022;12.066;2022-09-25T03:47:37;11.90;99.90
56076;DHT22;41951;49.022;12.066;2022-09-25T03:50:03;11.90;99.90
56076;DHT22;41951;49.022;12.066;2022-09-25T03:52:28;11.90;99.90
56076;DHT22;41951;49.022;12.066;2022-09-25T03:54:54;12.00;99.90
56076;DHT22;41951;49.022;12.066;2022-09-25T03:57:19;12.00;99.90
56076;DHT22;41951;49.022;12.066;2022-09-25T03:59:45;12.10;99.90
56076;DHT22;41951;49.022;12.066;2022-09-25T04:02:10;12.00;99.90
56076;DHT22;41951;49.022;12.066;2022-09-25T04:04:37;12.10;99.90
56076;DHT22;41951;49.022;12.066;2022-09-25T04:07:03;12.10;99.90
56076;DHT22;41951;49.022;12.066;2022-09-25T04:09:30;12.10;99.90
56076;DHT22;41951;49.022;12.066;2022-09-25T04:11:56;12.20;99.90
56076;DHT22;41951;49.022;12.066;2022-09-25T04:14:22;12.20;99.90
56076;DHT22;41951;49.022;12.066;2022-09-25T04:16:48;12.20;99.90
56076;DHT22;41951;49.022;12.066;2022-09-25T04:19:14;12.20;99.90
56076;DHT22;41951;49.022;12.066;2022-09-25T04:21:41;12.70;99.90
56076;DHT22;41951;49.022;12.066;2022-09-25T04:24:06;12.20;99.90
56076;DHT22;41951;49.022;12.066;2022-09-25T04:26:50;12.20;99.90
56076;DHT22;41951;49.022;12.066;2022-09-25T04:29:18;12.30;99.90
56076;DHT22;41951;49.022;12.066;2022-09-25T04:31:45;12.20;99.90
56076;DHT22;41951;49.022;12.066;2022-09-25T04:34:31;12.20;99.90
56076;DHT22;41951;49.022;12.066;2022-09-25T04:36:56;12.10;99.90
56076;DHT22;41951;49.022;12.066;2022-09-25T04:39:22;12.10;99.90
56076;DHT22;41951;49.022;12.066;2022-09-25T04:41:47;12.20;99.90
56076;DHT22;41951;49.022;12.066;2022-09-25T04:44:13;12.20;99.90
56076;DHT22;41951;49.022;12.066;2022-09-25T04:46:38;12.20;99.90
56076;DHT22;41951;49.022;12.066;2022-09-25T04:49:04;12.20;99.90
56076;DHT22;41951;49.022;12.066;2022-09-25T04:51:30;12.20;99.90
56076;DHT22;41951;49.022;12.066;2022-09-25T04:53:56;12.30;99.90
56076;DHT22;41951;49.022;12.066;2022-09-25T04:56:21;12.20;99.90
56076;DHT22;41951;49.022;12.066;2022-09-25T04:58:48;12.30;99.90
56076;DHT22;41951;49.022;12.066;2022-09-25T05:01:16;12.30;99.90
56076;DHT22;41951;49.022;12.066;2022-09-25T05:03:42;12.30;99.90
56076;DHT22;41951;49.022;12.066;2022-09-25T05:06:07;12.30;99.90
56076;DHT22;41951;49.022;12.066;2022-09-25T05:08:33;12.30;99.90
56076;DHT22;41951;49.022;12.066;2022-09-25T05:10:58;12.30;99.90
56076;DHT22;41951;49.022;12.066;2022-09-25T05:13:24;12.30;99.90
56076;DHT22;41951;49.022;12.066;2022-09-25T05:15:50;12.30;99.90
56076;DHT22;41951;49.022;12.066;2022-09-25T05:18:18;12.30;99.90
56076;DHT22;41951;49.022;12.066;2022-09-25T05:20:44;12.30;99.90
56076;DHT22;41951;49.022;12.066;2022-09-25T05:23:09;12.30;99.90
56076;DHT22;41951;49.022;12.066;2022-09-25T05:25:35;12.40;99.90
56076;DHT22;41951;49.022;12.066;2022-09-25T05:28:01;12.40;99.90
56076;DHT22;41951;49.022;12.066;2022-09-25T05:30:29;12.40;99.90
56076;DHT22;41951;49.022;12.066;2022-09-25T05:32:55;12.40;99.90
56076;DHT22;41951;49.022;12.066;2022-09-25T05:35:25;12.50;99.90
56076;DHT22;41951;49.022;12.066;2022-09-25T05:37:50;12.50;99.90
56076;DHT22;41951;49.022;12.066;2022-09-25T05:40:17;12.50;99.90
56076;DHT22;41951;49.022;12.066;2022-09-25T05:42:45;12.50;99.90
56076;DHT22;41951;49.022;12.066;2022-09-25T05:45:11;12.50;99.90
56076;DHT22;41951;49.022;12.066;2022-09-25T05:47:38;12.40;99.90
56076;DHT22;41951;49.022;12.066;2022-09-25T05:50:05;12.50;99.90
56076;DHT22;41951;49.022;12.066;2022-09-25T05:52:31;12.40;99.90
56076;DHT22;41951;49.022;12.066;2022-09-25T05:54:56;12.50;99.90
56076;DHT22;41951;49.022;12.066;2022-09-25T05:57:22;12.50;99.90
56076;DHT22;41951;49.022;12.066;2022-09-25T05:59:48;12.50;99.90
56076;DHT22;41951;49.022;12.066;2022-09-25T06:02:15;12.50;99.90
56076;DHT22;41951;49.022;12.066;2022-09-25T06:04:41;12.40;99.90
56076;DHT22;41951;49.022;12.066;2022-09-25T06:07:07;12.50;99.90
56076;DHT22;41951;49.022;12.066;2022-09-25T06:09:34;12.50;99.90
56076;DHT22;41951;49.022;12.066;2022-09-25T06:12:00;12.50;99.90
56076;DHT22;41951;49.022;12.066;2022-09-25T06:14:26;12.50;99.90
56076;DHT22;41951;49.022;12.066;2022-09-25T06:16:51;12.50;99.90
56076;DHT22;41951;49.022;12.066;2022-09-25T06:19:17;12.50;99.90
56076;DHT22;41951;49.022;12.066;2022-09-25T06:21:43;12.50;99.90
56076;DHT22;41951;49.022;12.066;2022-09-25T06:24:09;12.60;99.90
56076;DHT22;41951;49.022;12.066;2022-09-25T06:26:38;12.60;99.90
56076;DHT22;41951;49.022;12.066;2022-09-25T06:29:04;12.60;99.90
56076;DHT22;41951;49.022;12.066;2022-09-25T06:31:32;12.70;99.90
56076;DHT22;41951;49.022;12.066;2022-09-25T06:33:58;12.70;99.90
56076;DHT22;41951;49.022;12.066;2022-09-25T06:36:23;12.70;99.90
56076;DHT22;41951;49.022;12.066;2022-09-25T06:38:52;12.80;99.90
56076;DHT22;41951;49.022;12.066;2022-09-25T06:41:19;12.80;99.90
56076;DHT22;41951;49.022;12.066;2022-09-25T06:43:48;12.80;99.90
56076;DHT22;41951;49.022;12.066;2022-09-25T06:46:14;12.80;99.90
56076;DHT22;41951;49.022;12.066;2022-09-25T06:48:39;12.80;99.90
56076;DHT22;41951;49.022;12.066;2022-09-25T06:51:05;12.80;99.90
56076;DHT22;41951;49.022;12.066;2022-09-25T06:53:32;12.80;99.90
56076;DHT22;41951;49.022;12.066;2022-09-25T06:55:58;12.90;99.90
56076;DHT22;41951;49.022;12.066;2022-09-25T06:58:24;12.90;99.90
56076;DHT22;41951;49.022;12.066;2022-09-25T07:00:53;12.90;99.90
56076;DHT22;41951;49.022;12.066;2022-09-25T07:03:19;13.00;99.90
56076;DHT22;41951;49.022;12.066;2022-09-25T07:06:04;13.00;99.90
56076;DHT22;41951;49.022;12.066;2022-09-25T07:08:30;13.00;99.90
56076;DHT22;41951;49.022;12.066;2022-09-25T07:10:57;13.10;99.90
56076;DHT22;41951;49.022;12.066;2022-09-25T07:13:26;13.10;99.90
56076;DHT22;41951;49.022;12.066;2022-09-25T07:15:58;13.10;99.90
56076;DHT22;41951;49.022;12.066;2022-09-25T07:18:24;13.10;99.90
56076;DHT22;41951;49.022;12.066;2022-09-25T07:20:50;13.10;99.90
56076;DHT22;41951;49.022;12.066;2022-09-25T07:23:18;13.10;99.90
56076;DHT22;41951;49.022;12.066;2022-09-25T07:25:44;13.10;99.90
56076;DHT22;41951;49.022;12.066;2022-09-25T07:28:11;13.10;99.90
56076;DHT22;41951;49.022;12.066;2022-09-25T07:30:41;13.10;99.90
56076;DHT22;41951;49.022;12.066;2022-09-25T07:33:07;13.20;99.90
56076;DHT22;41951;49.022;12.066;2022-09-25T07:35:34;13.20;99.90
56076;DHT22;41951;49.022;12.066;2022-09-25T07:38:00;13.30;99.90
56076;DHT22;41951;49.022;12.066;2022-09-25T07:40:26;13.30;99.90
56076;DHT22;41951;49.022;12.066;2022-09-25T07:43:08;13.30;99.90
56076;DHT22;41951;49.022;12.066;2022-09-25T07:45:33;13.30;99.90
56076;DHT22;41951;49.022;12.066;2022-09-25T07:48:01;12.10;99.90
56076;DHT22;41951;49.022;12.066;2022-09-25T07:50:31;13.40;99.90
56076;DHT22;41951;49.022;12.066;2022-09-25T07:52:57;13.40;99.90
56076;DHT22;41951;49.022;12.066;2022-09-25T07:55:23;13.30;99.90
56076;DHT22;41951;49.022;12.066;2022-09-25T07:57:49;13.30;99.90
56076;DHT22;41951;49.022;12.066;2022-09-25T08:00:16;13.40;99.90
56076;DHT22;41951;49.022;12.066;2022-09-25T08:02:42;13.40;99.90
56076;DHT22;41951;49.022;12.066;2022-09-25T08:05:08;13.40;99.90
56076;DHT22;41951;49.022;12.066;2022-09-25T08:07:34;13.50;99.90
56076;DHT22;41951;49.022;12.066;2022-09-25T08:09:59;13.50;99.90
56076;DHT22;41951;49.022;12.066;2022-09-25T08:12:25;13.60;99.90
56076;DHT22;41951;49.022;12.066;2022-09-25T08:14:51;13.60;99.90
56076;DHT22;41951;49.022;12.066;2022-09-25T08:17:18;13.60;99.90
56076;DHT22;41951;49.022;12.066;2022-09-25T08:19:46;13.60;99.90
56076;DHT22;41951;49.022;12.066;2022-09-25T08:22:12;13.60;99.90
56076;DHT22;41951;49.022;12.066;2022-09-25T08:24:38;13.70;99.90
56076;DHT22;41951;49.022;12.066;2022-09-25T08:27:04;13.80;99.90
56076;DHT22;41951;49.022;12.066;2022-09-25T08:29:30;13.80;99.90
56076;DHT22;41951;49.022;12.066;2022-09-25T08:31:56;13.80;99.90
56076;DHT22;41951;49.022;12.066;2022-09-25T08:34:22;13.80;99.90
56076;DHT22;41951;49.022;12.066;2022-09-25T08:36:48;13.80;99.90
56076;DHT22;41951;49.022;12.066;2022-09-25T08:39:15;13.70;99.90
56076;DHT22;41951;49.022;12.066;2022-09-25T08:41:50;13.80;99.90
56076;DHT22;41951;49.022;12.066;2022-09-25T08:44:40;13.80;99.90
56076;DHT22;41951;49.022;12.066;2022-09-25T08:47:34;13.80;99.90
56076;DHT22;41951;49.022;12.066;2022-09-25T08:50:21;13.80;99.90
56076;DHT22;41951;49.022;12.066;2022-09-25T08:52:51;13.90;99.90
56076;DHT22;41951;49.022;12.066;2022-09-25T08:55:26;13.90;99.90
56076;DHT22;41951;49.022;12.066;2022-09-25T08:58:22;13.90;99.90
56076;DHT22;41951;49.022;12.066;2022-09-25T09:00:52;13.80;99.90
56076;DHT22;41951;49.022;12.066;2022-09-25T09:03:22;13.90;99.90
56076;DHT22;41951;49.022;12.066;2022-09-25T09:05:55;13.90;99.90
56076;DHT22;41951;49.022;12.066;2022-09-25T09:08:25;13.80;99.90
56076;DHT22;41951;49.022;12.066;2022-09-25T09:11:06;13.80;99.90
56076;DHT22;41951;49.022;12.066;2022-09-25T09:16:58;13.80;99.90
56076;DHT22;41951;49.022;12.066;2022-09-25T09:19:25;13.90;99.90
56076;DHT22;41951;49.022;12.066;2022-09-25T09:30:17;14.10;99.90
56076;DHT22;41951;49.022;12.066;2022-09-25T09:35:41;14.00;99.90
56076;DHT22;41951;49.022;12.066;2022-09-25T09:38:28;14.00;99.90
56076;DHT22;41951;49.022;12.066;2022-09-25T09:41:08;14.00;99.90
56076;DHT22;41951;49.022;12.066;2022-09-25T09:46:44;14.00;99.90
56076;DHT22;41951;49.022;12.066;2022-09-25T09:54:35;14.00;99.90
56076;DHT22;41951;49.022;12.066;2022-09-25T09:57:12;14.00;99.90
56076;DHT22;41951;49.022;12.066;2022-09-25T10:00:03;14.00;99.90
56076;DHT22;41951;49.022;12.066;2022-09-25T10:02:42;13.90;99.90
56076;DHT22;41951;49.022;12.066;2022-09-25T10:08:15;14.00;99.90
56076;DHT22;41951;49.022;12.066;2022-09-25T10:10:44;14.10;99.90
56076;DHT22;41951;49.022;12.066;2022-09-25T10:13:20;14.10;99.90
56076;DHT22;41951;49.022;12.066;2022-09-25T10:18:18;14.20;99.90
56076;DHT22;41951;49.022;12.066;2022-09-25T10:21:04;14.20;99.90
56076;DHT22;41951;49.022;12.066;2022-09-25T10:24:00;14.20;99.90
56076;DHT22;41951;49.022;12.066;2022-09-25T10:26:31;14.20;99.90
56076;DHT22;41951;49.022;12.066;2022-09-25T10:29:03;14.20;99.90
56076;DHT22;41951;49.022;12.066;2022-09-25T10:31:32;14.30;99.90
56076;DHT22;41951;49.022;12.066;2022-09-25T10:36:46;14.20;99.90
56076;DHT22;41951;49.022;12.066;2022-09-25T10:39:36;14.20;99.90
56076;DHT22;41951;49.022;12.066;2022-09-25T10:42:07;14.20;99.90
56076;DHT22;41951;49.022;12.066;2022-09-25T10:44:54;14.20;99.90
56076;DHT22;41951;49.022;12.066;2022-09-25T10:50:25;14.70;99.90
56076;DHT22;41951;49.022;12.066;2022-09-25T10:52:56;14.50;99.90
56076;DHT22;41951;49.022;12.066;2022-09-25T10:55:29;14.60;99.90
56076;DHT22;41951;49.022;12.066;2022-09-25T10:58:19;14.40;99.90
56076;DHT22;41951;49.022;12.066;2022-09-25T11:03:36;14.60;99.90
56076;DHT22;41951;49.022;12.066;2022-09-25T11:06:09;14.60;99.90
56076;DHT22;41951;49.022;12.066;2022-09-25T11:08:44;14.50;99.90
56076;DHT22;41951;49.022;12.066;2022-09-25T11:11:11;14.50;99.90
56076;DHT22;41951;49.022;12.066;2022-09-25T11:13:46;14.60;99.90
56076;DHT22;41951;49.022;12.066;2022-09-25T11:16:12;14.60;99.90
56076;DHT22;41951;49.022;12.066;2022-09-25T11:18:43;14.70;99.90
56076;DHT22;41951;49.022;12.066;2022-09-25T11:21:34;14.80;99.90
56076;DHT22;41951;49.022;12.066;2022-09-25T11:24:24;14.90;99.90
56076;DHT22;41951;49.022;12.066;2022-09-25T11:29:53;14.90;99.90
56076;DHT22;41951;49.022;12.066;2022-09-25T11:41:02;15.00;99.90
56076;DHT22;41951;49.022;12.066;2022-09-25T11:49:38;15.00;99.90
56076;DHT22;41951;49.022;12.066;2022-09-25T11:52:23;15.00;99.90
56076;DHT22;41951;49.022;12.066;2022-09-25T12:03:40;15.20;99.90
56076;DHT22;41951;49.022;12.066;2022-09-25T12:09:42;15.20;99.90
56076;DHT22;41951;49.022;12.066;2022-09-25T12:12:22;15.20;99.90
56076;DHT22;41951;49.022;12.066;2022-09-25T12:34:19;15.30;99.90
56076;DHT22;41951;49.022;12.066;2022-09-25T12:36:45;15.30;99.90
56076;DHT22;41951;49.022;12.066;2022-09-25T12:44:43;15.30;99.90
56076;DHT22;41951;49.022;12.066;2022-09-25T12:47:39;15.40;99.90
56076;DHT22;41951;49.022;12.066;2022-09-25T12:50:29;15.40;99.90
56076;DHT22;41951;49.022;12.066;2022-09-25T12:53:21;15.50;99.90
56076;DHT22;41951;49.022;12.066;2022-09-25T12:55:55;15.40;99.90
56076;DHT22;41951;49.022;12.066;2022-09-25T12:58:33;15.50;99.90
56076;DHT22;41951;49.022;12.066;2022-09-25T13:01:11;15.60;99.90
56076;DHT22;41951;49.022;12.066;2022-09-25T13:04:29;15.60;99.90
56076;DHT22;41951;49.022;12.066;2022-09-25T13:09:51;15.60;99.90
56076;DHT22;41951;49.022;12.066;2022-09-25T13:12:35;15.60;99.90
56076;DHT22;41951;49.022;12.066;2022-09-25T13:15:21;15.70;99.90
56076;DHT22;41951;49.022;12.066;2022-09-25T13:17:48;15.70;99.90
56076;DHT22;41951;49.022;12.066;2022-09-25T13:23:05;15.90;99.90
56076;DHT22;41951;49.022;12.066;2022-09-25T13:26:00;15.90;99.90
56076;DHT22;41951;49.022;12.066;2022-09-25T13:29:02;15.90;99.90
56076;DHT22;41951;49.022;12.066;2022-09-25T13:31:28;15.90;99.90
56076;DHT22;41951;49.022;12.066;2022-09-25T13:36:31;15.80;99.90
56076;DHT22;41951;49.022;12.066;2022-09-25T13:39:01;15.80;99.90
56076;DHT22;41951;49.022;12.066;2022-09-25T13:41:58;15.80;99.90
56076;DHT22;41951;49.022;12.066;2022-09-25T13:44:45;15.80;99.90
56076;DHT22;41951;49.022;12.066;2022-09-25T13:47:37;15.80;99.90
56076;DHT22;41951;49.022;12.066;2022-09-25T13:55:28;15.60;99.90
56076;DHT22;41951;49.022;12.066;2022-09-25T14:01:13;15.50;99.90
56076;DHT22;41951;49.022;12.066;2022-09-25T14:06:03;15.40;99.90
56076;DHT22;41951;49.022;12.066;2022-09-25T14:08:33;15.40;99.90
56076;DHT22;41951;49.022;12.066;2022-09-25T14:11:02;15.50;99.90
56076;DHT22;41951;49.022;12.066;2022-09-25T14:13:30;15.40;99.90
56076;DHT22;41951;49.022;12.066;2022-09-25T14:15:58;15.50;99.90
56076;DHT22;41951;49.022;12.066;2022-09-25T14:20:58;15.70;99.90
56076;DHT22;41951;49.022;12.066;2022-09-25T14:23:28;15.90;99.90
56076;DHT22;41951;49.022;12.066;2022-09-25T14:26:14;16.50;99.90
56076;DHT22;41951;49.022;12.066;2022-09-25T14:28:46;15.60;99.90
56076;DHT22;41951;49.022;12.066;2022-09-25T14:39:37;15.50;99.90
56076;DHT22;41951;49.022;12.066;2022-09-25T14:42:22;15.40;99.90
56076;DHT22;41951;49.022;12.066;2022-09-25T14:47:39;15.50;99.90
56076;DHT22;41951;49.022;12.066;2022-09-25T14:52:42;15.50;99.90
56076;DHT22;41951;49.022;12.066;2022-09-25T14:55:14;15.50;99.90
56076;DHT22;41951;49.022;12.066;2022-09-25T14:57:41;15.50;99.90
56076;DHT22;41951;49.022;12.066;2022-09-25T15:00:08;15.50;99.90
56076;DHT22;41951;49.022;12.066;2022-09-25T15:02:42;15.50;99.90
56076;DHT22;41951;49.022;12.066;2022-09-25T15:05:30;15.50;99.90
56076;DHT22;41951;49.022;12.066;2022-09-25T15:07:58;15.50;99.90
56076;DHT22;41951;49.022;12.066;2022-09-25T15:10:36;15.50;99.90
56076;DHT22;41951;49.022;12.066;2022-09-25T15:15:32;15.50;99.90
56076;DHT22;41951;49.022;12.066;2022-09-25T15:17:58;15.60;99.90
56076;DHT22;41951;49.022;12.066;2022-09-25T15:20:31;15.50;99.90
56076;DHT22;41951;49.022;12.066;2022-09-25T15:23:06;15.50;99.90
56076;DHT22;41951;49.022;12.066;2022-09-25T15:25:46;15.50;99.90
56076;DHT22;41951;49.022;12.066;2022-09-25T15:28:15;15.50;99.90
56076;DHT22;41951;49.022;12.066;2022-09-25T15:30:42;15.50;99.90
56076;DHT22;41951;49.022;12.066;2022-09-25T15:33:26;15.50;99.90
56076;DHT22;41951;49.022;12.066;2022-09-25T15:35:58;15.40;99.90
56076;DHT22;41951;49.022;12.066;2022-09-25T15:40:54;15.50;99.90
56076;DHT22;41951;49.022;12.066;2022-09-25T15:43:20;15.50;99.90
56076;DHT22;41951;49.022;12.066;2022-09-25T15:48:30;15.40;99.90
56076;DHT22;41951;49.022;12.066;2022-09-25T15:51:01;15.30;99.90
56076;DHT22;41951;49.022;12.066;2022-09-25T15:53:38;15.20;99.90
56076;DHT22;41951;49.022;12.066;2022-09-25T15:56:20;15.20;99.90
56076;DHT22;41951;49.022;12.066;2022-09-25T15:58:54;15.10;99.90
56076;DHT22;41951;49.022;12.066;2022-09-25T16:01:23;15.10;99.90
56076;DHT22;41951;49.022;12.066;2022-09-25T16:04:19;15.00;99.90
56076;DHT22;41951;49.022;12.066;2022-09-25T16:09:50;15.00;99.90
56076;DHT22;41951;49.022;12.066;2022-09-25T16:14:48;15.00;99.90
56076;DHT22;41951;49.022;12.066;2022-09-25T16:22:50;15.00;99.90
56076;DHT22;41951;49.022;12.066;2022-09-25T16:25:23;14.90;99.90
56076;DHT22;41951;49.022;12.066;2022-09-25T16:27:51;14.90;99.90
56076;DHT22;41951;49.022;12.066;2022-09-25T16:30:20;14.90;99.90
56076;DHT22;41951;49.022;12.066;2022-09-25T16:32:50;14.80;99.90
56076;DHT22;41951;49.022;12.066;2022-09-25T16:35:35;14.80;99.90
56076;DHT22;41951;49.022;12.066;2022-09-25T16:38:01;14.70;99.90
56076;DHT22;41951;49.022;12.066;2022-09-25T16:40:29;14.70;99.90
56076;DHT22;41951;49.022;12.066;2022-09-25T16:42:59;14.70;99.90
56076;DHT22;41951;49.022;12.066;2022-09-25T16:45:33;14.60;99.90
56076;DHT22;41951;49.022;12.066;2022-09-25T16:48:03;14.60;99.90
56076;DHT22;41951;49.022;12.066;2022-09-25T16:50:45;14.60;99.90
56076;DHT22;41951;49.022;12.066;2022-09-25T16:53:13;14.50;99.90
56076;DHT22;41951;49.022;12.066;2022-09-25T16:55:46;14.50;99.90
56076;DHT22;41951;49.022;12.066;2022-09-25T16:58:19;14.50;99.90
56076;DHT22;41951;49.022;12.066;2022-09-25T17:00:45;14.50;99.90
56076;DHT22;41951;49.022;12.066;2022-09-25T17:03:11;14.50;99.90
56076;DHT22;41951;49.022;12.066;2022-09-25T17:05:37;14.40;99.90
56076;DHT22;41951;49.022;12.066;2022-09-25T17:08:18;14.40;99.90
56076;DHT22;41951;49.022;12.066;2022-09-25T17:10:48;14.40;99.90
56076;DHT22;41951;49.022;12.066;2022-09-25T17:13:16;14.40;99.90
56076;DHT22;41951;49.022;12.066;2022-09-25T17:15:42;14.30;99.90
56076;DHT22;41951;49.022;12.066;2022-09-25T17:18:16;14.30;99.90
56076;DHT22;41951;49.022;12.066;2022-09-25T17:20:42;14.20;99.90
56076;DHT22;41951;49.022;12.066;2022-09-25T17:23:08;14.20;99.90
56076;DHT22;41951;49.022;12.066;2022-09-25T17:25:48;14.20;99.90
56076;DHT22;41951;49.022;12.066;2022-09-25T17:28:14;14.10;99.90
56076;DHT22;41951;49.022;12.066;2022-09-25T17:30:40;14.00;99.90
56076;DHT22;41951;49.022;12.066;2022-09-25T17:33:19;14.00;99.90
56076;DHT22;41951;49.022;12.066;2022-09-25T17:35:53;14.00;99.90
56076;DHT22;41951;49.022;12.066;2022-09-25T17:38:23;14.00;99.90
56076;DHT22;41951;49.022;12.066;2022-09-25T17:40:50;14.00;99.90
56076;DHT22;41951;49.022;12.066;2022-09-25T17:43:17;13.90;99.90
56076;DHT22;41951;49.022;12.066;2022-09-25T17:48:16;13.80;99.90
56076;DHT22;41951;49.022;12.066;2022-09-25T17:50:49;13.80;99.90
56076;DHT22;41951;49.022;12.066;2022-09-25T17:53:17;13.80;99.90
56076;DHT22;41951;49.022;12.066;2022-09-25T17:55:43;13.70;99.90
56076;DHT22;41951;49.022;12.066;2022-09-25T17:58:11;13.70;99.90
56076;DHT22;41951;49.022;12.066;2022-09-25T18:00:36;13.70;99.90
56076;DHT22;41951;49.022;12.066;2022-09-25T18:03:02;13.70;99.90
56076;DHT22;41951;49.022;12.066;2022-09-25T18:05:27;13.60;99.90
56076;DHT22;41951;49.022;12.066;2022-09-25T18:07:54;13.60;99.90
56076;DHT22;41951;49.022;12.066;2022-09-25T18:10:20;13.60;99.90
56076;DHT22;41951;49.022;12.066;2022-09-25T18:12:46;13.60;99.90
56076;DHT22;41951;49.022;12.066;2022-09-25T18:15:12;13.50;99.90
56076;DHT22;41951;49.022;12.066;2022-09-25T18:17:38;13.50;99.90
56076;DHT22;41951;49.022;12.066;2022-09-25T18:20:05;13.50;99.90
56076;DHT22;41951;49.022;12.066;2022-09-25T18:22:49;13.40;99.90
56076;DHT22;41951;49.022;12.066;2022-09-25T18:25:16;13.40;99.90
56076;DHT22;41951;49.022;12.066;2022-09-25T18:27:42;13.40;99.90
56076;DHT22;41951;49.022;12.066;2022-09-25T18:30:16;13.30;99.90
56076;DHT22;41951;49.022;12.066;2022-09-25T18:32:43;13.30;99.90
56076;DHT22;41951;49.022;12.066;2022-09-25T18:35:10;13.30;99.90
56076;DHT22;41951;49.022;12.066;2022-09-25T18:37:36;13.30;99.90
56076;DHT22;41951;49.022;12.066;2022-09-25T18:40:02;13.30;99.90